Time;durP1;ratioP1;P1;durP2;ratioP2;P2;SDS_P1;SDS_P2;PMS_P1;PMS_P2;Temp;Humidity;BMP_temperature;BMP_pressure;BME280_temperature;BME280_humidity;BME280_pressure;Samples;Min_cycle;Max_cycle;Signal;HPM_P1;HPM_P2
2023/03/29 00:00:34;;;;;;;6.60;4.47;;;3.50;99.90;;;;;;4984620;28;20090;-78
2023/03/29 00:03:01;;;;;;;6.75;3.35;;;3.60;99.90;;;;;;4993294;28;20110;-75
2023/03/29 00:05:27;;;;;;;3.38;2.47;;;3.60;99.90;;;;;;4983593;28;20054;-77
2023/03/29 00:07:53;;;;;;;2.15;2.05;;;3.70;99.90;;;;;;4985598;28;20041;-77
2023/03/29 00:10:21;;;;;;;4.15;2.78;;;3.80;99.90;;;;;;4985655;28;20031;-76
2023/03/29 00:12:46;;;;;;;2.17;1.75;;;3.80;99.90;;;;;;4984295;28;20102;-77
2023/03/29 00:15:12;;;;;;;3.30;2.40;;;3.90;99.90;;;;;;4983752;28;20070;-76
2023/03/29 00:17:38;;;;;;;4.72;2.45;;;4.00;99.90;;;;;;4987791;28;20035;-77
2023/03/29 00:20:08;;;;;;;3.60;2.30;;;4.00;99.90;;;;;;4980575;28;20054;-78
2023/03/29 00:22:35;;;;;;;2.88;2.08;;;4.10;99.90;;;;;;4982630;28;20415;-77
2023/03/29 00:25:03;;;;;;;2.55;2.25;;;4.10;99.90;;;;;;4985508;28;20101;-76
2023/03/29 00:27:28;;;;;;;3.65;2.35;;;4.10;99.90;;;;;;4980222;28;20046;-77
2023/03/29 00:29:55;;;;;;;2.20;2.00;;;4.20;99.90;;;;;;4986145;28;20053;-77
2023/03/29 00:32:21;;;;;;;2.30;2.10;;;4.10;99.90;;;;;;4990205;28;20054;-77
2023/03/29 00:34:49;;;;;;;2.67;2.40;;;4.10;99.90;;;;;;4982755;28;20454;-77
2023/03/29 00:37:16;;;;;;;3.45;2.33;;;4.10;99.90;;;;;;4982983;28;20137;-76
2023/03/29 00:39:42;;;;;;;3.47;2.42;;;4.10;99.90;;;;;;4985167;28;20100;-77
2023/03/29 00:42:12;;;;;;;4.40;2.20;;;4.10;99.90;;;;;;4982501;28;20042;-77
2023/03/29 00:45:08;;;;;;;2.83;2.25;;;4.10;99.90;;;;;;4983088;28;20034;-76
2023/03/29 00:47:41;;;;;;;3.65;2.47;;;4.10;99.90;;;;;;4982598;28;20030;-76
2023/03/29 00:50:41;;;;;;;2.88;2.30;;;4.10;99.90;;;;;;4988494;28;20026;-77
2023/03/29 00:53:09;;;;;;;2.17;1.77;;;4.00;99.90;;;;;;4959109;28;20038;-77
2023/03/29 00:55:41;;;;;;;2.28;1.80;;;4.10;99.90;;;;;;4987114;28;20041;-77
2023/03/29 00:58:11;;;;;;;2.70;2.50;;;4.10;99.90;;;;;;4991951;28;20090;-77
2023/03/29 01:00:43;;;;;;;2.72;2.00;;;4.00;99.90;;;;;;4989168;28;20042;-77
2023/03/29 01:03:12;;;;;;;2.90;2.35;;;4.10;99.90;;;;;;4993218;28;20049;-78
2023/03/29 01:05:43;;;;;;;2.35;2.15;;;4.10;99.90;;;;;;4987011;28;20045;-76
2023/03/29 01:08:17;;;;;;;2.60;2.20;;;4.10;99.90;;;;;;4989729;28;20030;-77
2023/03/29 01:10:48;;;;;;;2.90;2.08;;;4.10;99.90;;;;;;4986667;28;20062;-77
2023/03/29 01:13:26;;;;;;;2.47;2.22;;;4.10;99.90;;;;;;4990102;28;20047;-76
2023/03/29 01:15:55;;;;;;;2.17;2.03;;;4.10;99.90;;;;;;4987267;28;20065;-76
2023/03/29 01:18:21;;;;;;;3.78;2.10;;;4.00;99.90;;;;;;4989368;28;20490;-78
2023/03/29 01:21:14;;;;;;;2.75;2.00;;;4.00;99.90;;;;;;4987162;28;20138;-77
2023/03/29 01:23:39;;;;;;;1.52;1.42;;;4.00;99.90;;;;;;4988087;28;20058;-81
2023/03/29 01:26:17;;;;;;;3.28;2.60;;;4.10;99.90;;;;;;4988336;28;20031;-80
2023/03/29 01:28:51;;;;;;;2.95;1.88;;;4.00;99.90;;;;;;4991478;28;20265;-78
2023/03/29 01:31:28;;;;;;;1.80;1.65;;;4.00;99.90;;;;;;4983417;28;20045;-77
2023/03/29 01:34:01;;;;;;;2.83;1.63;;;4.00;99.90;;;;;;4986482;28;20116;-77
2023/03/29 01:36:35;;;;;;;2.10;1.90;;;4.00;99.90;;;;;;4992897;28;20081;-78
2023/03/29 01:39:04;;;;;;;2.47;1.73;;;4.00;99.90;;;;;;4988358;28;20061;-77
2023/03/29 01:41:58;;;;;;;2.30;2.10;;;4.00;99.90;;;;;;4988446;28;20053;-79
2023/03/29 01:44:34;;;;;;;3.25;1.80;;;4.00;99.90;;;;;;4990473;28;20121;-77
2023/03/29 01:47:15;;;;;;;1.83;1.60;;;4.00;99.90;;;;;;4988371;28;20018;-78
2023/03/29 01:49:57;;;;;;;1.88;1.77;;;4.00;99.90;;;;;;4985846;28;20035;-76
2023/03/29 01:52:35;;;;;;;1.85;1.75;;;4.00;99.90;;;;;;4986963;28;20120;-77
2023/03/29 01:55:13;;;;;;;1.63;1.53;;;4.00;99.90;;;;;;4982588;28;20796;-77
2023/03/29 01:57:43;;;;;;;1.80;1.70;;;3.90;99.90;;;;;;4990827;28;20018;-76
2023/03/29 02:00:18;;;;;;;2.97;1.70;;;4.00;99.90;;;;;;4989335;28;20054;-76
2023/03/29 02:02:44;;;;;;;2.70;2.00;;;4.00;99.90;;;;;;4986675;28;20043;-77
2023/03/29 02:05:13;;;;;;;2.58;2.00;;;4.00;99.90;;;;;;4994095;28;20126;-76
2023/03/29 02:07:42;;;;;;;2.30;2.10;;;4.00;99.90;;;;;;4983395;28;20114;-76
2023/03/29 02:10:08;;;;;;;;;;;4.00;99.90;;;;;;4989955;28;20584;-77
2023/03/29 02:12:35;;;;;;;1.55;1.48;;;4.00;99.90;;;;;;4991223;28;19909;-76
2023/03/29 02:15:00;;;;;;;2.17;1.95;;;4.00;99.90;;;;;;4984943;28;20035;-76
2023/03/29 02:17:27;;;;;;;2.70;1.70;;;4.00;99.90;;;;;;4984967;28;20062;-76
2023/03/29 02:20:13;;;;;;;3.03;1.98;;;4.00;99.90;;;;;;4983101;28;20128;-77
2023/03/29 02:23:01;;;;;;;2.95;1.75;;;4.00;99.90;;;;;;4988288;28;20054;-76
2023/03/29 02:25:28;;;;;;;2.30;1.70;;;4.00;99.90;;;;;;4988319;28;20057;-76
2023/03/29 02:27:55;;;;;;;1.80;1.55;;;4.00;99.90;;;;;;4989629;28;20065;-77
2023/03/29 02:30:23;;;;;;;2.42;1.90;;;4.00;99.90;;;;;;4992011;28;20043;-77
2023/03/29 02:33:09;;;;;;;2.75;2.50;;;4.00;99.90;;;;;;4986910;28;20065;-77
2023/03/29 02:35:55;;;;;;;3.20;1.75;;;4.00;99.90;;;;;;4980737;28;20034;-77
2023/03/29 02:38:24;;;;;;;1.83;1.70;;;4.00;99.90;;;;;;4987391;28;20039;-76
2023/03/29 02:40:51;;;;;;;2.90;1.90;;;4.00;99.90;;;;;;4989482;28;20062;-77
2023/03/29 02:43:21;;;;;;;2.17;1.65;;;4.00;99.90;;;;;;4985051;28;20027;-78
2023/03/29 02:45:49;;;;;;;2.05;1.85;;;4.00;99.90;;;;;;4985160;28;20034;-76
2023/03/29 02:48:19;;;;;;;2.20;1.80;;;4.00;99.90;;;;;;4983069;28;20472;-77
2023/03/29 02:50:48;;;;;;;1.70;1.60;;;4.00;99.90;;;;;;4984515;28;20038;-76
2023/03/29 02:53:23;;;;;;;4.97;2.13;;;4.00;99.90;;;;;;4985028;28;20039;-76
2023/03/29 02:55:48;;;;;;;2.35;1.52;;;3.90;99.90;;;;;;4976726;28;20038;-76
2023/03/29 02:58:14;;;;;;;1.88;1.77;;;3.90;99.90;;;;;;4983284;28;20090;-76
2023/03/29 03:00:43;;;;;;;2.83;1.95;;;4.00;99.90;;;;;;4978428;28;20317;-77
2023/03/29 03:03:10;;;;;;;1.67;1.58;;;3.90;99.90;;;;;;4979482;28;20109;-76
2023/03/29 03:05:37;;;;;;;1.75;1.60;;;3.80;99.90;;;;;;4979040;28;20114;-77
2023/03/29 03:08:06;;;;;;;2.63;1.88;;;3.80;99.90;;;;;;4978180;28;20049;-79
2023/03/29 03:10:33;;;;;;;1.83;1.73;;;3.80;99.90;;;;;;4979053;28;20057;-77
2023/03/29 03:12:59;;;;;;;4.80;1.73;;;3.90;99.90;;;;;;4977578;28;20030;-77
2023/03/29 03:15:25;;;;;;;1.77;1.67;;;3.90;99.90;;;;;;4984864;28;20173;-77
2023/03/29 03:17:51;;;;;;;2.13;1.98;;;3.90;99.90;;;;;;4981885;28;20058;-77
2023/03/29 03:20:16;;;;;;;2.13;1.90;;;4.00;99.90;;;;;;4981359;28;20045;-76
2023/03/29 03:22:47;;;;;;;1.50;1.40;;;3.90;99.90;;;;;;4986214;28;20063;-77
2023/03/29 03:25:19;;;;;;;3.40;1.65;;;3.90;99.90;;;;;;4981667;28;20081;-77
2023/03/29 03:27:47;;;;;;;3.13;1.85;;;3.90;99.90;;;;;;4985992;28;20037;-77
2023/03/29 03:30:13;;;;;;;3.08;1.75;;;3.90;99.90;;;;;;4986595;28;20069;-76
2023/03/29 03:32:40;;;;;;;2.08;1.52;;;3.90;99.90;;;;;;4985025;28;20070;-76
2023/03/29 03:35:06;;;;;;;2.22;1.90;;;3.80;99.90;;;;;;4972214;28;20035;-76
2023/03/29 03:37:32;;;;;;;1.70;1.60;;;3.80;99.90;;;;;;4980480;28;20033;-76
2023/03/29 03:39:58;;;;;;;1.40;1.30;;;3.80;99.90;;;;;;4984379;28;20038;-76
2023/03/29 03:42:27;;;;;;;1.88;1.63;;;3.80;99.90;;;;;;4985341;28;20031;-75
2023/03/29 03:44:53;;;;;;;1.35;1.25;;;3.80;99.90;;;;;;4983008;28;20039;-77
2023/03/29 03:47:19;;;;;;;1.85;1.35;;;3.90;99.90;;;;;;4982296;28;20030;-76
2023/03/29 03:49:44;;;;;;;1.50;1.40;;;3.90;99.90;;;;;;4989569;28;20061;-77
2023/03/29 03:52:10;;;;;;;1.63;1.13;;;4.00;99.90;;;;;;4981819;28;20460;-77
2023/03/29 03:54:36;;;;;;;1.92;1.83;;;4.10;99.90;;;;;;4984153;28;20027;-77
2023/03/29 03:57:02;;;;;;;1.58;1.48;;;4.10;99.90;;;;;;4983239;28;20031;-78
2023/03/29 03:59:28;;;;;;;4.07;1.40;;;4.10;99.90;;;;;;4983127;28;20067;-77
2023/03/29 04:01:53;;;;;;;1.33;1.23;;;4.10;99.90;;;;;;4981821;28;20049;-77
2023/03/29 04:04:19;;;;;;;1.27;1.25;;;4.20;99.90;;;;;;4987635;28;20045;-77
2023/03/29 04:06:45;;;;;;;1.50;1.40;;;4.20;99.90;;;;;;4983630;28;20106;-77
2023/03/29 04:09:11;;;;;;;1.48;1.30;;;4.20;99.90;;;;;;4983331;28;20035;-77
2023/03/29 04:11:37;;;;;;;1.80;1.70;;;4.20;99.90;;;;;;5009295;28;20031;-79
2023/03/29 04:14:03;;;;;;;2.05;1.70;;;4.30;99.90;;;;;;4979384;28;20038;-76
2023/03/29 04:16:29;;;;;;;1.70;1.40;;;4.20;99.90;;;;;;4981796;28;20439;-77
2023/03/29 04:18:54;;;;;;;1.60;1.50;;;4.20;99.90;;;;;;4982652;28;20559;-77
2023/03/29 04:21:20;;;;;;;1.60;1.30;;;4.20;99.90;;;;;;4978038;28;20042;-77
2023/03/29 04:23:46;;;;;;;1.73;1.55;;;4.20;99.90;;;;;;4973076;28;20055;-76
2023/03/29 04:26:13;;;;;;;2.75;1.92;;;4.20;99.90;;;;;;4982263;28;20058;-77
2023/03/29 04:28:39;;;;;;;2.45;1.50;;;4.30;99.90;;;;;;4981933;28;20027;-77
2023/03/29 04:31:12;;;;;;;1.50;1.40;;;4.30;99.90;;;;;;4977169;28;20106;-77
2023/03/29 04:33:38;;;;;;;1.55;1.27;;;4.30;99.90;;;;;;4981498;28;20097;-77
2023/03/29 04:36:05;;;;;;;1.50;1.40;;;4.30;99.90;;;;;;4981872;28;20047;-77
2023/03/29 04:38:34;;;;;;;1.10;1.10;;;4.30;99.90;;;;;;4978204;28;20686;-77
2023/03/29 04:41:02;;;;;;;3.13;1.83;;;4.40;99.90;;;;;;4980808;28;20471;-77
2023/03/29 04:43:29;;;;;;;1.60;1.50;;;4.40;99.90;;;;;;4984764;28;20137;-77
2023/03/29 04:45:56;;;;;;;3.20;1.05;;;4.40;99.90;;;;;;4983827;28;20114;-77
2023/03/29 04:48:22;;;;;;;1.23;1.23;;;4.50;99.90;;;;;;4990193;28;20031;-77
2023/03/29 04:50:48;;;;;;;1.10;1.10;;;4.70;99.90;;;;;;4981041;28;20035;-76
2023/03/29 04:53:13;;;;;;;1.58;1.35;;;4.80;99.90;;;;;;4985003;28;20110;-76
2023/03/29 04:55:39;;;;;;;6.72;1.75;;;4.80;99.90;;;;;;4982691;28;20035;-77
2023/03/29 04:58:04;;;;;;;1.27;1.10;;;5.00;99.90;;;;;;4983293;28;20514;-77
2023/03/29 05:00:30;;;;;;;0.95;0.90;;;5.00;99.90;;;;;;4984327;28;20047;-77
2023/03/29 05:02:56;;;;;;;1.00;1.00;;;5.10;99.90;;;;;;4982757;28;20389;-76
2023/03/29 05:05:22;;;;;;;1.17;1.13;;;5.10;99.90;;;;;;4979763;28;20041;-77
2023/03/29 05:07:48;;;;;;;2.53;1.20;;;5.10;99.90;;;;;;4985058;28;20035;-79
2023/03/29 05:10:14;;;;;;;1.73;1.55;;;5.10;99.90;;;;;;4978791;28;20053;-81
2023/03/29 05:12:40;;;;;;;1.00;1.00;;;5.10;99.90;;;;;;4985751;28;20433;-78
2023/03/29 05:15:07;;;;;;;1.10;0.90;;;5.10;99.90;;;;;;4982210;28;20035;-76
2023/03/29 05:17:33;;;;;;;0.95;0.95;;;5.20;99.90;;;;;;4983429;28;20038;-78
2023/03/29 05:20:00;;;;;;;1.10;1.10;;;5.20;99.90;;;;;;4985530;28;20029;-76
2023/03/29 05:22:27;;;;;;;1.00;0.93;;;5.20;99.90;;;;;;4984256;28;20051;-77
2023/03/29 05:24:53;;;;;;;1.20;1.08;;;5.30;99.90;;;;;;4983595;28;20531;-76
2023/03/29 05:27:20;;;;;;;1.92;1.48;;;5.30;99.90;;;;;;4978657;28;20039;-77
2023/03/29 05:29:46;;;;;;;1.08;1.02;;;5.30;99.90;;;;;;4974839;28;20042;-76
2023/03/29 05:32:12;;;;;;;2.00;1.25;;;5.30;99.90;;;;;;4980309;28;20113;-76
2023/03/29 05:34:38;;;;;;;3.08;1.33;;;5.30;99.90;;;;;;4986262;28;20026;-77
2023/03/29 05:37:04;;;;;;;1.35;1.05;;;5.40;99.90;;;;;;4981227;28;21956;-77
2023/03/29 05:39:32;;;;;;;0.90;0.90;;;5.40;99.90;;;;;;4985392;28;20039;-77
2023/03/29 05:41:58;;;;;;;1.00;1.00;;;5.40;99.90;;;;;;4983885;28;20042;-78
2023/03/29 05:44:24;;;;;;;1.80;1.23;;;5.40;99.90;;;;;;4985580;28;20278;-78
2023/03/29 05:46:50;;;;;;;1.80;1.20;;;5.50;99.90;;;;;;4993554;28;20092;-77
2023/03/29 05:49:16;;;;;;;1.38;1.20;;;5.50;99.90;;;;;;4997188;28;20041;-77
2023/03/29 05:51:44;;;;;;;0.98;0.98;;;5.50;99.90;;;;;;4984733;28;20042;-77
2023/03/29 05:54:10;;;;;;;3.00;1.48;;;5.50;99.90;;;;;;4989683;28;20027;-78
2023/03/29 05:56:36;;;;;;;1.70;1.52;;;5.60;99.90;;;;;;4984575;28;20111;-78
2023/03/29 05:59:01;;;;;;;1.77;1.52;;;5.70;99.90;;;;;;4989933;28;20127;-76
2023/03/29 06:01:27;;;;;;;1.10;1.10;;;5.70;99.90;;;;;;4984191;28;20088;-78
2023/03/29 06:03:53;;;;;;;2.10;1.65;;;5.70;99.90;;;;;;4983239;28;20035;-78
2023/03/29 06:06:20;;;;;;;2.55;1.67;;;5.80;99.90;;;;;;4985505;28;20031;-77
2023/03/29 06:08:46;;;;;;;1.90;1.63;;;5.80;99.90;;;;;;4983436;28;20077;-81
2023/03/29 06:11:12;;;;;;;4.10;2.33;;;5.80;99.90;;;;;;4982794;28;22093;-78
2023/03/29 06:13:38;;;;;;;2.55;2.00;;;5.80;99.90;;;;;;4982349;28;20065;-77
2023/03/29 06:16:05;;;;;;;2.22;1.88;;;5.90;99.90;;;;;;4982193;28;20062;-77
2023/03/29 06:18:31;;;;;;;2.97;1.58;;;5.90;99.90;;;;;;4984582;28;20360;-77
2023/03/29 06:20:57;;;;;;;1.60;1.40;;;6.00;99.90;;;;;;4985638;28;20043;-76
2023/03/29 06:23:23;;;;;;;2.55;1.60;;;6.00;99.90;;;;;;4982119;28;20113;-77
2023/03/29 06:25:50;;;;;;;1.10;1.10;;;6.00;99.90;;;;;;4987386;28;20042;-77
2023/03/29 06:28:17;;;;;;;2.92;1.25;;;6.10;99.90;;;;;;4987115;28;20039;-78
2023/03/29 06:30:42;;;;;;;1.30;1.20;;;6.10;99.90;;;;;;4983983;28;20042;-77
2023/03/29 06:33:09;;;;;;;1.00;1.00;;;6.30;99.90;;;;;;4989430;28;20026;-77
2023/03/29 06:35:35;;;;;;;1.00;1.00;;;6.40;99.90;;;;;;4985571;28;20023;-77
2023/03/29 06:38:02;;;;;;;0.90;0.90;;;6.50;99.90;;;;;;4984998;28;20042;-77
2023/03/29 06:40:28;;;;;;;3.30;1.10;;;6.70;99.90;;;;;;4989686;28;20068;-77
2023/03/29 06:42:56;;;;;;;1.30;1.20;;;6.80;99.90;;;;;;4988573;28;20039;-77
2023/03/29 06:45:27;;;;;;;1.25;1.20;;;6.80;99.90;;;;;;4983449;28;20050;-77
2023/03/29 06:47:52;;;;;;;1.27;1.00;;;6.90;99.90;;;;;;4986512;28;20039;-77
2023/03/29 06:50:18;;;;;;;1.45;1.05;;;7.00;99.90;;;;;;4989032;28;20457;-78
2023/03/29 06:52:45;;;;;;;3.72;1.30;;;7.00;99.90;;;;;;4985703;28;20101;-77
2023/03/29 06:55:11;;;;;;;1.38;1.15;;;7.10;99.90;;;;;;4987512;28;20035;-77
2023/03/29 06:57:38;;;;;;;1.30;1.20;;;7.10;99.90;;;;;;4985950;28;20030;-76
2023/03/29 07:00:18;;;;;;;2.67;1.20;;;7.20;99.90;;;;;;4983048;28;20023;-77
2023/03/29 07:02:45;;;;;;;1.45;1.30;;;7.20;99.90;;;;;;4985925;28;20043;-76
2023/03/29 07:05:12;;;;;;;1.00;1.00;;;7.30;99.90;;;;;;4983661;28;20038;-77
2023/03/29 07:07:53;;;;;;;1.25;0.90;;;7.30;99.90;;;;;;4984093;28;20037;-77
2023/03/29 07:10:44;;;;;;;0.98;0.95;;;7.40;99.90;;;;;;4984649;28;20042;-77
2023/03/29 07:13:12;;;;;;;1.80;1.00;;;7.40;99.90;;;;;;4987698;28;20038;-76
2023/03/29 07:15:38;;;;;;;1.40;1.30;;;7.40;99.90;;;;;;4989054;28;20038;-77
2023/03/29 07:18:04;;;;;;;1.08;1.05;;;7.40;99.90;;;;;;4989100;28;20133;-76
2023/03/29 07:20:30;;;;;;;1.27;1.10;;;7.40;99.90;;;;;;4987564;28;20085;-76
2023/03/29 07:22:56;;;;;;;1.15;1.02;;;7.50;99.90;;;;;;4983298;28;20062;-77
2023/03/29 07:25:23;;;;;;;1.30;1.30;;;7.50;99.90;;;;;;4984194;28;20041;-78
2023/03/29 07:27:50;;;;;;;2.25;1.30;;;7.60;99.90;;;;;;4987488;28;20031;-77
2023/03/29 07:30:19;;;;;;;2.53;1.23;;;7.70;99.90;;;;;;4988945;28;20023;-79
2023/03/29 07:32:45;;;;;;;1.00;1.00;;;7.80;99.90;;;;;;4980903;28;20053;-82
2023/03/29 07:35:13;;;;;;;2.05;1.02;;;7.90;99.90;;;;;;4985114;28;20563;-77
2023/03/29 07:37:41;;;;;;;1.88;1.33;;;7.90;99.90;;;;;;4982209;28;20035;-77
2023/03/29 07:40:10;;;;;;;1.67;1.55;;;8.00;99.90;;;;;;4977149;28;20031;-79
2023/03/29 07:42:35;;;;;;;1.65;1.30;;;8.00;99.90;;;;;;4983967;28;20042;-77
2023/03/29 07:45:06;;;;;;;1.95;1.13;;;8.10;99.90;;;;;;4983385;28;20114;-78
2023/03/29 07:47:32;;;;;;;1.20;1.20;;;8.10;99.90;;;;;;4981464;28;20495;-77
2023/03/29 07:49:58;;;;;;;3.88;1.40;;;8.10;99.90;;;;;;4982647;28;20045;-77
2023/03/29 07:52:26;;;;;;;1.58;1.45;;;8.10;99.90;;;;;;4981743;28;20034;-77
2023/03/29 07:54:52;;;;;;;;;;;8.20;99.90;;;;;;4982176;28;20094;-77
2023/03/29 07:57:17;;;;;;;1.20;1.10;;;8.30;99.90;;;;;;4981695;28;19917;-77
2023/03/29 07:59:43;;;;;;;1.25;1.20;;;8.40;99.90;;;;;;4984732;28;20058;-77
2023/03/29 08:02:10;;;;;;;1.35;1.25;;;8.40;99.90;;;;;;4977987;28;20069;-77
2023/03/29 08:04:35;;;;;;;1.42;1.10;;;8.50;99.90;;;;;;4992775;28;20023;-77
2023/03/29 08:07:01;;;;;;;1.25;1.10;;;8.60;99.90;;;;;;4985630;28;20037;-76
2023/03/29 08:09:27;;;;;;;1.20;1.10;;;8.70;99.90;;;;;;4990780;28;20095;-76
2023/03/29 08:11:52;;;;;;;1.10;1.05;;;8.80;99.90;;;;;;4984229;28;20050;-77
2023/03/29 08:14:20;;;;;;;1.63;1.50;;;8.90;99.90;;;;;;4988648;28;20038;-76
2023/03/29 08:16:46;;;;;;;1.58;1.40;;;9.00;99.90;;;;;;4980623;28;20066;-77
2023/03/29 08:19:13;;;;;;;2.20;1.50;;;9.20;99.90;;;;;;4987657;28;20030;-76
2023/03/29 08:21:38;;;;;;;1.05;0.98;;;9.30;99.90;;;;;;4980667;28;20039;-77
2023/03/29 08:24:04;;;;;;;3.22;1.10;;;9.40;99.90;;;;;;4981742;28;20098;-76
2023/03/29 08:26:30;;;;;;;3.70;1.10;;;9.50;99.90;;;;;;4981315;28;20045;-77
2023/03/29 08:28:56;;;;;;;1.55;1.23;;;9.50;99.90;;;;;;4984511;28;20031;-77
2023/03/29 08:31:21;;;;;;;1.58;1.00;;;9.60;99.90;;;;;;4982073;28;20053;-80
2023/03/29 08:33:47;;;;;;;2.70;1.10;;;9.70;99.90;;;;;;4986981;28;20026;-76
2023/03/29 08:36:12;;;;;;;1.40;1.00;;;9.60;99.90;;;;;;4985109;28;20046;-76
2023/03/29 08:38:38;;;;;;;1.10;0.80;;;9.60;99.90;;;;;;4986238;28;20394;-76
2023/03/29 08:41:48;;;;;;;3.30;0.90;;;9.60;99.90;;;;;;4988293;28;20394;-77
2023/03/29 08:44:22;;;;;;;1.10;1.00;;;9.60;99.90;;;;;;4986876;28;20506;-79
2023/03/29 08:46:59;;;;;;;2.40;1.30;;;9.60;99.90;;;;;;4980456;28;20095;-79
2023/03/29 08:49:26;;;;;;;1.17;1.02;;;9.50;99.90;;;;;;4991347;28;20051;-76
2023/03/29 08:51:57;;;;;;;2.95;1.38;;;9.50;99.90;;;;;;4984645;28;20035;-80
2023/03/29 08:54:26;;;;;;;1.38;1.00;;;9.50;99.90;;;;;;4979714;28;20063;-77
2023/03/29 08:56:58;;;;;;;2.85;1.00;;;9.50;99.90;;;;;;4983556;28;20023;-78
2023/03/29 08:59:30;;;;;;;1.42;1.33;;;9.60;99.90;;;;;;4983436;28;20026;-80
2023/03/29 09:01:57;;;;;;;1.55;1.42;;;9.50;99.90;;;;;;4982374;28;20070;-79
2023/03/29 09:04:27;;;;;;;1.40;1.30;;;9.60;99.90;;;;;;4983922;28;20022;-77
2023/03/29 09:06:53;;;;;;;2.40;0.80;;;9.60;99.90;;;;;;4982632;28;20034;-78
2023/03/29 09:09:27;;;;;;;1.88;1.25;;;9.70;99.90;;;;;;4987079;28;20023;-77
2023/03/29 09:12:01;;;;;;;1.25;1.05;;;9.80;99.90;;;;;;4994843;28;20035;-77
2023/03/29 09:14:27;;;;;;;1.83;0.90;;;9.80;99.90;;;;;;4990323;28;20030;-77
2023/03/29 09:17:20;;;;;;;4.75;1.30;;;9.90;99.90;;;;;;4988492;28;20059;-76
2023/03/29 09:20:13;;;;;;;3.20;1.60;;;10.10;99.90;;;;;;4990596;28;20522;-77
2023/03/29 09:23:09;;;;;;;1.42;0.90;;;10.20;99.90;;;;;;4989796;28;20522;-80
2023/03/29 09:25:58;;;;;;;1.40;1.30;;;10.30;99.90;;;;;;4986464;28;20031;-77
2023/03/29 09:28:39;;;;;;;2.03;1.20;;;10.40;99.90;;;;;;4991146;28;20038;-76
2023/03/29 09:31:09;;;;;;;2.15;1.42;;;10.50;99.90;;;;;;4989092;28;20046;-76
2023/03/29 09:33:43;;;;;;;2.75;0.80;;;10.50;99.90;;;;;;4988319;28;20081;-76
2023/03/29 09:36:28;;;;;;;1.15;1.02;;;10.60;99.90;;;;;;4993079;28;20034;-76
2023/03/29 09:38:55;;;;;;;3.22;1.40;;;10.70;99.90;;;;;;4989864;28;20049;-77
2023/03/29 09:41:30;;;;;;;1.33;1.23;;;10.60;99.90;;;;;;4990985;28;20038;-76
2023/03/29 09:44:01;;;;;;;1.30;1.00;;;10.70;99.90;;;;;;4990411;28;20399;-77
2023/03/29 09:46:38;;;;;;;4.70;1.20;;;10.70;99.90;;;;;;4995852;28;20054;-77
2023/03/29 09:49:09;;;;;;;2.53;1.50;;;10.60;99.90;;;;;;4988959;28;20047;-77
2023/03/29 09:51:34;;;;;;;1.73;1.00;;;10.70;99.90;;;;;;4987395;28;20035;-78
2023/03/29 09:54:00;;;;;;;4.78;1.20;;;10.80;99.90;;;;;;4987149;28;20046;-77
2023/03/29 09:56:27;;;;;;;1.45;1.35;;;10.80;99.90;;;;;;4989004;28;20035;-77
2023/03/29 09:58:53;;;;;;;1.10;1.00;;;10.90;99.90;;;;;;4989462;28;20023;-77
2023/03/29 10:01:19;;;;;;;1.55;1.17;;;10.70;99.90;;;;;;4987842;28;20085;-78
2023/03/29 10:03:52;;;;;;;1.45;1.00;;;10.70;99.90;;;;;;4988288;28;20041;-77
2023/03/29 10:06:20;;;;;;;3.03;1.30;;;10.70;99.90;;;;;;4991844;28;20386;-76
2023/03/29 10:08:57;;;;;;;0.85;0.85;;;10.70;99.90;;;;;;4989731;28;20464;-77
2023/03/29 10:11:31;;;;;;;1.13;0.70;;;10.70;99.90;;;;;;4988148;28;20034;-78
2023/03/29 10:14:02;;;;;;;0.70;0.70;;;10.90;99.90;;;;;;4991240;28;20086;-77
2023/03/29 10:16:38;;;;;;;0.70;0.70;;;10.90;99.90;;;;;;4989146;28;20090;-77
2023/03/29 10:19:33;;;;;;;1.10;0.75;;;10.90;99.90;;;;;;4987754;28;20035;-77
2023/03/29 10:22:00;;;;;;;1.63;1.20;;;10.90;99.90;;;;;;4984167;28;20039;-77
2023/03/29 10:24:27;;;;;;;3.20;1.47;;;11.00;99.90;;;;;;4986880;28;20023;-77
2023/03/29 10:26:58;;;;;;;4.18;1.52;;;11.20;99.90;;;;;;4986938;28;20398;-76
2023/03/29 10:29:26;;;;;;;3.22;1.13;;;11.30;99.30;;;;;;4988735;28;20026;-78
2023/03/29 10:31:52;;;;;;;2.10;1.10;;;11.40;99.90;;;;;;4999369;28;20045;-77
2023/03/29 10:34:24;;;;;;;1.85;0.88;;;11.50;99.90;;;;;;4984934;28;20023;-76
2023/03/29 10:36:58;;;;;;;1.13;1.02;;;11.50;99.20;;;;;;4990148;28;20042;-76
2023/03/29 10:39:28;;;;;;;3.22;1.42;;;11.50;99.90;;;;;;4986481;28;20037;-77
2023/03/29 10:41:54;;;;;;;1.20;1.10;;;11.70;99.90;;;;;;4988586;28;20503;-77
2023/03/29 10:44:31;;;;;;;2.90;1.15;;;11.70;97.70;;;;;;4993066;28;20038;-76
2023/03/29 10:47:07;;;;;;;2.25;1.70;;;11.60;95.60;;;;;;4982318;28;20023;-77
2023/03/29 10:49:40;;;;;;;2.85;1.38;;;11.60;95.70;;;;;;4987625;28;20113;-77
2023/03/29 10:52:08;;;;;;;2.55;1.30;;;11.80;99.60;;;;;;4989382;28;20037;-76
2023/03/29 10:54:34;;;;;;;0.70;0.70;;;11.90;96.20;;;;;;4984960;28;20027;-77
2023/03/29 10:57:05;;;;;;;2.45;1.13;;;12.10;97.60;;;;;;4985872;28;20053;-76
2023/03/29 10:59:42;;;;;;;1.85;0.90;;;12.00;94.20;;;;;;4990442;28;20090;-78
2023/03/29 11:02:13;;;;;;;0.95;0.95;;;12.00;95.20;;;;;;4986171;28;20097;-77
2023/03/29 11:04:55;;;;;;;1.20;1.10;;;12.10;93.40;;;;;;4988364;28;20033;-76
2023/03/29 11:07:34;;;;;;;1.40;0.98;;;12.20;91.60;;;;;;4986726;28;20035;-76
2023/03/29 11:10:19;;;;;;;1.40;1.08;;;12.20;90.40;;;;;;4991538;28;20474;-76
2023/03/29 11:12:55;;;;;;;1.30;1.10;;;12.20;92.00;;;;;;4985637;28;20057;-78
2023/03/29 11:15:52;;;;;;;1.38;0.90;;;12.20;91.90;;;;;;4986048;28;20075;-76
2023/03/29 11:18:49;;;;;;;1.25;1.15;;;12.30;87.60;;;;;;4990442;28;20033;-76
2023/03/29 11:21:32;;;;;;;2.15;0.80;;;12.10;92.80;;;;;;4986134;28;20138;-76
2023/03/29 11:24:33;;;;;;;2.25;1.35;;;12.10;92.90;;;;;;4988061;28;20101;-76
2023/03/29 11:27:28;;;;;;;4.82;1.27;;;12.10;91.90;;;;;;4986214;28;20109;-77
2023/03/29 11:30:20;;;;;;;1.55;1.40;;;12.30;92.60;;;;;;4983471;28;20027;-78
2023/03/29 11:33:31;;;;;;;2.58;1.20;;;12.50;88.30;;;;;;4987052;28;20061;-76
2023/03/29 11:36:15;;;;;;;2.13;1.13;;;12.50;90.90;;;;;;4985919;28;20054;-76
2023/03/29 11:38:54;;;;;;;1.42;1.10;;;12.70;90.70;;;;;;4994277;28;20065;-76
2023/03/29 11:41:27;;;;;;;1.33;1.00;;;12.70;91.80;;;;;;4989403;28;20099;-76
2023/03/29 11:44:04;;;;;;;1.25;1.00;;;12.70;93.60;;;;;;4981738;28;20027;-76
2023/03/29 11:46:38;;;;;;;1.17;1.02;;;12.70;92.80;;;;;;4986623;28;20034;-77
2023/03/29 11:49:19;;;;;;;2.72;1.42;;;12.50;90.40;;;;;;4987978;28;20042;-76
2023/03/29 11:51:55;;;;;;;1.67;1.15;;;12.60;89.90;;;;;;4985175;28;20031;-76
2023/03/29 11:54:24;;;;;;;1.88;1.30;;;12.70;86.80;;;;;;4999986;28;20039;-76
2023/03/29 11:57:13;;;;;;;4.40;1.38;;;12.80;92.20;;;;;;4989561;28;20042;-76
2023/03/29 11:59:48;;;;;;;1.88;0.98;;;12.80;90.30;;;;;;4990012;28;20027;-76
2023/03/29 12:02:32;;;;;;;2.15;1.33;;;12.80;90.70;;;;;;4983258;28;20098;-76
2023/03/29 12:05:02;;;;;;;1.35;0.98;;;12.90;90.60;;;;;;4990258;28;20058;-77
2023/03/29 12:08:02;;;;;;;1.55;1.20;;;13.00;90.00;;;;;;4987229;28;20042;-76
2023/03/29 12:10:36;;;;;;;1.02;1.02;;;13.10;87.80;;;;;;4988316;28;20434;-77
2023/03/29 12:13:04;;;;;;;1.08;0.98;;;13.10;77.80;;;;;;4991140;28;20110;-77
2023/03/29 12:15:35;;;;;;;2.33;1.27;;;13.10;73.50;;;;;;4989791;28;20030;-77
2023/03/29 12:18:13;;;;;;;2.40;1.05;;;13.10;68.90;;;;;;4986457;28;20044;-77
2023/03/29 12:20:39;;;;;;;1.23;1.05;;;13.20;79.10;;;;;;4983632;28;20042;-76
2023/03/29 12:23:09;;;;;;;2.47;1.15;;;13.30;75.90;;;;;;4982650;28;20046;-77
2023/03/29 12:26:01;;;;;;;1.30;1.20;;;13.40;72.50;;;;;;4986799;28;20038;-78
2023/03/29 12:28:38;;;;;;;1.13;1.00;;;13.30;68.60;;;;;;4986646;28;20058;-77
2023/03/29 12:31:31;;;;;;;1.58;1.17;;;13.30;73.40;;;;;;4985002;28;20035;-79
2023/03/29 12:34:18;;;;;;;1.27;1.15;;;13.30;74.80;;;;;;4984790;28;20085;-77
2023/03/29 12:36:56;;;;;;;1.30;0.95;;;13.30;76.20;;;;;;4983058;28;20084;-77
2023/03/29 12:39:23;;;;;;;2.47;1.08;;;13.40;69.50;;;;;;4984516;28;20041;-77
2023/03/29 12:41:50;;;;;;;1.38;1.27;;;13.50;78.80;;;;;;4982910;28;20073;-77
2023/03/29 12:44:19;;;;;;;2.47;1.30;;;13.50;73.70;;;;;;4983399;28;20035;-77
2023/03/29 12:46:45;;;;;;;2.50;1.20;;;13.40;77.20;;;;;;4983949;28;20042;-76
2023/03/29 12:49:26;;;;;;;2.20;1.73;;;13.30;74.50;;;;;;4990168;28;20045;-77
2023/03/29 12:51:55;;;;;;;1.25;1.13;;;13.50;74.40;;;;;;4985289;28;20035;-77
2023/03/29 12:54:30;;;;;;;0.90;0.90;;;13.40;73.30;;;;;;4995853;28;20026;-76
2023/03/29 12:56:59;;;;;;;1.58;1.00;;;13.40;76.30;;;;;;4990146;28;20057;-77
2023/03/29 12:59:43;;;;;;;2.25;1.30;;;13.60;79.40;;;;;;4989494;28;20035;-77
2023/03/29 13:02:12;;;;;;;1.85;1.00;;;13.70;72.10;;;;;;4983718;28;20054;-77
2023/03/29 13:04:59;;;;;;;1.63;1.10;;;13.80;80.30;;;;;;4998689;28;20066;-77
2023/03/29 13:07:45;;;;;;;1.25;1.10;;;13.80;78.10;;;;;;4980851;28;20034;-77
2023/03/29 13:10:37;;;;;;;2.97;1.20;;;13.80;77.10;;;;;;4991430;28;20049;-77
2023/03/29 13:13:15;;;;;;;1.73;1.20;;;13.90;75.90;;;;;;4985184;28;20029;-77
2023/03/29 13:15:42;;;;;;;2.13;1.15;;;13.80;77.00;;;;;;4983905;28;20035;-77